sensor_id;sensor_type;location;lat;lon;timestamp;P1;durP1;ratioP1;P2;durP2;ratioP2
75639;SDS011;64233;51.486;6.332;2023-02-18T00:00:51;15.38;;;8.35;;
75639;SDS011;64233;51.486;6.332;2023-02-18T00:03:16;9.93;;;5.70;;
75639;SDS011;64233;51.486;6.332;2023-02-18T00:05:41;15.52;;;6.75;;
75639;SDS011;64233;51.486;6.332;2023-02-18T00:08:07;10.75;;;5.68;;
75639;SDS011;64233;51.486;6.332;2023-02-18T00:10:32;11.65;;;6.45;;
75639;SDS011;64233;51.486;6.332;2023-02-18T00:12:57;17.23;;;9.98;;
75639;SDS011;64233;51.486;6.332;2023-02-18T00:15:22;16.85;;;8.93;;
75639;SDS011;64233;51.486;6.332;2023-02-18T00:17:48;14.15;;;7.43;;
75639;SDS011;64233;51.486;6.332;2023-02-18T00:20:13;16.77;;;8.88;;
75639;SDS011;64233;51.486;6.332;2023-02-18T00:22:38;17.23;;;9.05;;
75639;SDS011;64233;51.486;6.332;2023-02-18T00:25:13;17.35;;;7.38;;
75639;SDS011;64233;51.486;6.332;2023-02-18T00:27:38;14.32;;;8.60;;
75639;SDS011;64233;51.486;6.332;2023-02-18T00:30:03;16.52;;;9.32;;
75639;SDS011;64233;51.486;6.332;2023-02-18T00:32:29;14.60;;;6.57;;
75639;SDS011;64233;51.486;6.332;2023-02-18T00:34:55;16.20;;;7.38;;
75639;SDS011;64233;51.486;6.332;2023-02-18T00:37:20;11.98;;;5.93;;
75639;SDS011;64233;51.486;6.332;2023-02-18T00:39:45;13.15;;;7.20;;
75639;SDS011;64233;51.486;6.332;2023-02-18T00:42:10;14.27;;;8.05;;
75639;SDS011;64233;51.486;6.332;2023-02-18T00:44:36;15.10;;;7.43;;
75639;SDS011;64233;51.486;6.332;2023-02-18T00:47:02;15.88;;;8.55;;
75639;SDS011;64233;51.486;6.332;2023-02-18T00:49:27;11.90;;;7.38;;
75639;SDS011;64233;51.486;6.332;2023-02-18T00:51:52;10.32;;;6.07;;
75639;SDS011;64233;51.486;6.332;2023-02-18T00:54:18;10.85;;;5.30;;
75639;SDS011;64233;51.486;6.332;2023-02-18T00:56:43;15.68;;;8.27;;
75639;SDS011;64233;51.486;6.332;2023-02-18T00:59:08;6.63;;;3.83;;
75639;SDS011;64233;51.486;6.332;2023-02-18T01:01:34;12.27;;;6.03;;
75639;SDS011;64233;51.486;6.332;2023-02-18T01:03:59;16.45;;;7.68;;
75639;SDS011;64233;51.486;6.332;2023-02-18T01:06:24;15.23;;;7.88;;
75639;SDS011;64233;51.486;6.332;2023-02-18T01:08:49;6.60;;;4.05;;
75639;SDS011;64233;51.486;6.332;2023-02-18T01:11:15;12.38;;;6.60;;
75639;SDS011;64233;51.486;6.332;2023-02-18T01:13:40;12.48;;;6.70;;
75639;SDS011;64233;51.486;6.332;2023-02-18T01:16:07;14.63;;;6.63;;
75639;SDS011;64233;51.486;6.332;2023-02-18T01:18:33;14.65;;;7.60;;
75639;SDS011;64233;51.486;6.332;2023-02-18T01:20:59;21.63;;;9.50;;
75639;SDS011;64233;51.486;6.332;2023-02-18T01:23:24;18.58;;;9.40;;
75639;SDS011;64233;51.486;6.332;2023-02-18T01:25:50;11.00;;;6.55;;
75639;SDS011;64233;51.486;6.332;2023-02-18T01:28:15;12.65;;;7.25;;
75639;SDS011;64233;51.486;6.332;2023-02-18T01:30:42;12.88;;;7.25;;
75639;SDS011;64233;51.486;6.332;2023-02-18T01:33:07;16.63;;;7.47;;
75639;SDS011;64233;51.486;6.332;2023-02-18T01:35:33;11.63;;;6.15;;
75639;SDS011;64233;51.486;6.332;2023-02-18T01:38:01;6.80;;;3.50;;
75639;SDS011;64233;51.486;6.332;2023-02-18T01:40:27;14.13;;;7.10;;
75639;SDS011;64233;51.486;6.332;2023-02-18T01:42:54;12.73;;;6.85;;
75639;SDS011;64233;51.486;6.332;2023-02-18T01:48:04;6.90;;;3.90;;
75639;SDS011;64233;51.486;6.332;2023-02-18T01:50:34;13.30;;;6.70;;
75639;SDS011;64233;51.486;6.332;2023-02-18T01:53:03;11.55;;;6.10;;
75639;SDS011;64233;51.486;6.332;2023-02-18T01:55:29;10.73;;;6.15;;
75639;SDS011;64233;51.486;6.332;2023-02-18T01:57:55;14.48;;;7.80;;
75639;SDS011;64233;51.486;6.332;2023-02-18T02:00:20;3.25;;;2.00;;
75639;SDS011;64233;51.486;6.332;2023-02-18T02:02:46;6.65;;;3.92;;
75639;SDS011;64233;51.486;6.332;2023-02-18T02:05:13;12.25;;;6.20;;
75639;SDS011;64233;51.486;6.332;2023-02-18T02:07:39;7.22;;;3.90;;
75639;SDS011;64233;51.486;6.332;2023-02-18T02:10:06;5.75;;;3.33;;
75639;SDS011;64233;51.486;6.332;2023-02-18T02:12:46;9.43;;;5.32;;
75639;SDS011;64233;51.486;6.332;2023-02-18T02:21:09;13.20;;;7.32;;
75639;SDS011;64233;51.486;6.332;2023-02-18T02:35:28;5.80;;;3.72;;
75639;SDS011;64233;51.486;6.332;2023-02-18T02:38:03;10.65;;;6.53;;
75639;SDS011;64233;51.486;6.332;2023-02-18T02:41:07;14.27;;;4.57;;
75639;SDS011;64233;51.486;6.332;2023-02-18T02:46:43;10.88;;;6.78;;
75639;SDS011;64233;51.486;6.332;2023-02-18T02:54:47;9.88;;;5.18;;
75639;SDS011;64233;51.486;6.332;2023-02-18T02:59:43;10.27;;;6.07;;
75639;SDS011;64233;51.486;6.332;2023-02-18T03:02:19;11.48;;;6.25;;
75639;SDS011;64233;51.486;6.332;2023-02-18T03:07:59;7.78;;;4.70;;
75639;SDS011;64233;51.486;6.332;2023-02-18T03:10:47;5.63;;;3.33;;
75639;SDS011;64233;51.486;6.332;2023-02-18T03:19:04;11.25;;;5.85;;
75639;SDS011;64233;51.486;6.332;2023-02-18T03:21:42;13.05;;;5.75;;
75639;SDS011;64233;51.486;6.332;2023-02-18T03:24:13;10.05;;;5.30;;
75639;SDS011;64233;51.486;6.332;2023-02-18T03:26:55;8.80;;;3.60;;
75639;SDS011;64233;51.486;6.332;2023-02-18T03:29:26;8.82;;;5.20;;
75639;SDS011;64233;51.486;6.332;2023-02-18T03:31:53;5.80;;;3.15;;
75639;SDS011;64233;51.486;6.332;2023-02-18T03:34:23;9.15;;;3.05;;
75639;SDS011;64233;51.486;6.332;2023-02-18T03:36:52;12.20;;;5.28;;
75639;SDS011;64233;51.486;6.332;2023-02-18T03:39:19;16.83;;;6.75;;
75639;SDS011;64233;51.486;6.332;2023-02-18T03:41:47;10.30;;;5.03;;
75639;SDS011;64233;51.486;6.332;2023-02-18T03:44:13;5.47;;;3.50;;
75639;SDS011;64233;51.486;6.332;2023-02-18T03:46:39;7.95;;;3.85;;
75639;SDS011;64233;51.486;6.332;2023-02-18T03:49:07;7.95;;;3.95;;
75639;SDS011;64233;51.486;6.332;2023-02-18T03:51:34;8.45;;;5.03;;
75639;SDS011;64233;51.486;6.332;2023-02-18T03:53:59;10.20;;;3.67;;
75639;SDS011;64233;51.486;6.332;2023-02-18T03:56:24;5.60;;;2.97;;
75639;SDS011;64233;51.486;6.332;2023-02-18T03:58:50;5.70;;;2.20;;
75639;SDS011;64233;51.486;6.332;2023-02-18T04:01:15;5.72;;;2.85;;
75639;SDS011;64233;51.486;6.332;2023-02-18T04:03:40;7.00;;;3.15;;
75639;SDS011;64233;51.486;6.332;2023-02-18T04:06:06;4.63;;;2.15;;
75639;SDS011;64233;51.486;6.332;2023-02-18T04:08:32;8.85;;;4.07;;
75639;SDS011;64233;51.486;6.332;2023-02-18T04:10:57;4.03;;;1.95;;
75639;SDS011;64233;51.486;6.332;2023-02-18T04:13:22;7.15;;;2.88;;
75639;SDS011;64233;51.486;6.332;2023-02-18T04:15:48;3.80;;;1.55;;
75639;SDS011;64233;51.486;6.332;2023-02-18T04:18:14;3.28;;;1.55;;
75639;SDS011;64233;51.486;6.332;2023-02-18T04:20:40;2.70;;;1.50;;
75639;SDS011;64233;51.486;6.332;2023-02-18T04:23:09;3.13;;;1.52;;
75639;SDS011;64233;51.486;6.332;2023-02-18T04:25:34;3.13;;;2.35;;
75639;SDS011;64233;51.486;6.332;2023-02-18T04:27:59;1.52;;;0.95;;
75639;SDS011;64233;51.486;6.332;2023-02-18T04:30:25;2.47;;;1.67;;
75639;SDS011;64233;51.486;6.332;2023-02-18T04:32:50;5.93;;;1.48;;
75639;SDS011;64233;51.486;6.332;2023-02-18T04:35:15;3.97;;;1.55;;
75639;SDS011;64233;51.486;6.332;2023-02-18T04:37:41;3.50;;;1.48;;
75639;SDS011;64233;51.486;6.332;2023-02-18T04:40:07;6.07;;;1.55;;
75639;SDS011;64233;51.486;6.332;2023-02-18T04:42:33;2.03;;;1.33;;
75639;SDS011;64233;51.486;6.332;2023-02-18T04:44:58;1.23;;;0.93;;
75639;SDS011;64233;51.486;6.332;2023-02-18T04:47:30;1.08;;;0.98;;
75639;SDS011;64233;51.486;6.332;2023-02-18T04:50:02;0.85;;;0.80;;
75639;SDS011;64233;51.486;6.332;2023-02-18T04:52:28;0.85;;;0.50;;
75639;SDS011;64233;51.486;6.332;2023-02-18T04:54:53;1.55;;;1.02;;
75639;SDS011;64233;51.486;6.332;2023-02-18T04:57:18;0.95;;;0.70;;
75639;SDS011;64233;51.486;6.332;2023-02-18T04:59:44;3.40;;;0.70;;
75639;SDS011;64233;51.486;6.332;2023-02-18T05:02:09;1.05;;;0.98;;
75639;SDS011;64233;51.486;6.332;2023-02-18T05:04:34;0.50;;;0.50;;
75639;SDS011;64233;51.486;6.332;2023-02-18T05:06:59;0.60;;;0.43;;
75639;SDS011;64233;51.486;6.332;2023-02-18T05:09:25;1.45;;;1.27;;
75639;SDS011;64233;51.486;6.332;2023-02-18T05:11:50;1.23;;;0.70;;
75639;SDS011;64233;51.486;6.332;2023-02-18T05:14:16;0.60;;;0.55;;
75639;SDS011;64233;51.486;6.332;2023-02-18T05:16:41;0.70;;;0.60;;
75639;SDS011;64233;51.486;6.332;2023-02-18T05:19:07;0.43;;;0.43;;
75639;SDS011;64233;51.486;6.332;2023-02-18T05:21:32;0.50;;;0.50;;
75639;SDS011;64233;51.486;6.332;2023-02-18T05:23:58;0.47;;;0.40;;
75639;SDS011;64233;51.486;6.332;2023-02-18T05:26:23;0.52;;;0.50;;
75639;SDS011;64233;51.486;6.332;2023-02-18T05:28:48;0.60;;;0.52;;
75639;SDS011;64233;51.486;6.332;2023-02-18T05:31:14;0.40;;;0.40;;
75639;SDS011;64233;51.486;6.332;2023-02-18T05:33:39;0.50;;;0.40;;
75639;SDS011;64233;51.486;6.332;2023-02-18T05:36:05;1.17;;;0.70;;
75639;SDS011;64233;51.486;6.332;2023-02-18T05:38:30;1.48;;;0.60;;
75639;SDS011;64233;51.486;6.332;2023-02-18T05:40:56;0.65;;;0.65;;
75639;SDS011;64233;51.486;6.332;2023-02-18T05:43:21;0.60;;;0.50;;
75639;SDS011;64233;51.486;6.332;2023-02-18T05:45:46;0.95;;;0.77;;
75639;SDS011;64233;51.486;6.332;2023-02-18T05:48:12;3.92;;;0.80;;
75639;SDS011;64233;51.486;6.332;2023-02-18T05:50:37;1.88;;;0.80;;
75639;SDS011;64233;51.486;6.332;2023-02-18T05:53:02;0.63;;;0.38;;
75639;SDS011;64233;51.486;6.332;2023-02-18T05:55:28;0.43;;;0.43;;
75639;SDS011;64233;51.486;6.332;2023-02-18T05:57:53;0.43;;;0.43;;
75639;SDS011;64233;51.486;6.332;2023-02-18T06:00:18;0.52;;;0.38;;
75639;SDS011;64233;51.486;6.332;2023-02-18T06:02:44;0.63;;;0.63;;
75639;SDS011;64233;51.486;6.332;2023-02-18T06:05:09;1.05;;;0.82;;
75639;SDS011;64233;51.486;6.332;2023-02-18T06:07:35;0.50;;;0.50;;
75639;SDS011;64233;51.486;6.332;2023-02-18T06:10:01;0.75;;;0.60;;
75639;SDS011;64233;51.486;6.332;2023-02-18T06:12:27;0.82;;;0.63;;
75639;SDS011;64233;51.486;6.332;2023-02-18T06:14:52;1.02;;;0.75;;
75639;SDS011;64233;51.486;6.332;2023-02-18T06:17:17;0.98;;;0.80;;
75639;SDS011;64233;51.486;6.332;2023-02-18T06:19:43;0.45;;;0.45;;
75639;SDS011;64233;51.486;6.332;2023-02-18T06:22:09;0.40;;;0.40;;
75639;SDS011;64233;51.486;6.332;2023-02-18T06:24:35;0.90;;;0.70;;
75639;SDS011;64233;51.486;6.332;2023-02-18T06:27:01;1.00;;;0.80;;
75639;SDS011;64233;51.486;6.332;2023-02-18T06:29:26;1.58;;;1.02;;
75639;SDS011;64233;51.486;6.332;2023-02-18T06:31:54;0.60;;;0.43;;
75639;SDS011;64233;51.486;6.332;2023-02-18T06:34:19;0.75;;;0.68;;
75639;SDS011;64233;51.486;6.332;2023-02-18T06:36:44;1.15;;;0.73;;
75639;SDS011;64233;51.486;6.332;2023-02-18T06:39:09;1.73;;;0.43;;
75639;SDS011;64233;51.486;6.332;2023-02-18T06:41:35;0.73;;;0.73;;
75639;SDS011;64233;51.486;6.332;2023-02-18T06:44:00;1.80;;;0.93;;
75639;SDS011;64233;51.486;6.332;2023-02-18T06:46:25;1.55;;;0.57;;
75639;SDS011;64233;51.486;6.332;2023-02-18T06:48:51;1.27;;;0.82;;
75639;SDS011;64233;51.486;6.332;2023-02-18T06:51:16;0.60;;;0.60;;
75639;SDS011;64233;51.486;6.332;2023-02-18T06:53:43;2.50;;;0.90;;
75639;SDS011;64233;51.486;6.332;2023-02-18T06:56:09;0.60;;;0.60;;
75639;SDS011;64233;51.486;6.332;2023-02-18T06:58:34;0.43;;;0.43;;
75639;SDS011;64233;51.486;6.332;2023-02-18T07:00:59;0.60;;;0.60;;
75639;SDS011;64233;51.486;6.332;2023-02-18T07:03:25;0.50;;;0.40;;
75639;SDS011;64233;51.486;6.332;2023-02-18T07:05:50;0.50;;;0.50;;
75639;SDS011;64233;51.486;6.332;2023-02-18T07:08:15;2.22;;;0.80;;
75639;SDS011;64233;51.486;6.332;2023-02-18T07:10:41;0.68;;;0.55;;
75639;SDS011;64233;51.486;6.332;2023-02-18T07:13:06;1.48;;;0.63;;
75639;SDS011;64233;51.486;6.332;2023-02-18T07:15:32;0.43;;;0.43;;
75639;SDS011;64233;51.486;6.332;2023-02-18T07:17:57;1.00;;;0.85;;
75639;SDS011;64233;51.486;6.332;2023-02-18T07:20:23;1.00;;;0.88;;
75639;SDS011;64233;51.486;6.332;2023-02-18T07:22:49;0.65;;;0.65;;
75639;SDS011;64233;51.486;6.332;2023-02-18T07:25:14;2.38;;;1.33;;
75639;SDS011;64233;51.486;6.332;2023-02-18T07:27:39;1.13;;;0.75;;
75639;SDS011;64233;51.486;6.332;2023-02-18T07:30:05;3.65;;;1.30;;
75639;SDS011;64233;51.486;6.332;2023-02-18T07:32:31;2.35;;;1.40;;
75639;SDS011;64233;51.486;6.332;2023-02-18T07:34:56;0.75;;;0.60;;
75639;SDS011;64233;51.486;6.332;2023-02-18T07:37:28;0.98;;;0.70;;
75639;SDS011;64233;51.486;6.332;2023-02-18T07:40:00;0.73;;;0.63;;
75639;SDS011;64233;51.486;6.332;2023-02-18T07:42:25;1.13;;;0.80;;
75639;SDS011;64233;51.486;6.332;2023-02-18T07:44:51;1.85;;;0.73;;
75639;SDS011;64233;51.486;6.332;2023-02-18T07:47:16;0.77;;;0.60;;
75639;SDS011;64233;51.486;6.332;2023-02-18T07:49:43;1.17;;;0.85;;
75639;SDS011;64233;51.486;6.332;2023-02-18T07:52:09;2.22;;;1.05;;
75639;SDS011;64233;51.486;6.332;2023-02-18T07:54:34;1.33;;;1.00;;
75639;SDS011;64233;51.486;6.332;2023-02-18T07:57:00;1.48;;;1.02;;
75639;SDS011;64233;51.486;6.332;2023-02-18T07:59:25;2.05;;;1.48;;
75639;SDS011;64233;51.486;6.332;2023-02-18T08:01:50;2.05;;;1.58;;
75639;SDS011;64233;51.486;6.332;2023-02-18T08:04:15;4.15;;;1.38;;
75639;SDS011;64233;51.486;6.332;2023-02-18T08:06:42;1.95;;;1.38;;
75639;SDS011;64233;51.486;6.332;2023-02-18T08:09:10;0.73;;;0.73;;
75639;SDS011;64233;51.486;6.332;2023-02-18T08:11:35;1.67;;;1.13;;
75639;SDS011;64233;51.486;6.332;2023-02-18T08:14:02;2.50;;;0.82;;
75639;SDS011;64233;51.486;6.332;2023-02-18T08:16:27;1.52;;;1.10;;
75639;SDS011;64233;51.486;6.332;2023-02-18T08:18:53;2.75;;;1.27;;
75639;SDS011;64233;51.486;6.332;2023-02-18T08:21:19;1.85;;;0.93;;
75639;SDS011;64233;51.486;6.332;2023-02-18T08:23:46;3.90;;;1.45;;
75639;SDS011;64233;51.486;6.332;2023-02-18T08:26:11;1.42;;;1.00;;
75639;SDS011;64233;51.486;6.332;2023-02-18T08:28:37;4.20;;;1.42;;
75639;SDS011;64233;51.486;6.332;2023-02-18T08:31:02;0.73;;;0.73;;
75639;SDS011;64233;51.486;6.332;2023-02-18T08:33:28;4.07;;;1.20;;
75639;SDS011;64233;51.486;6.332;2023-02-18T08:35:54;1.73;;;0.77;;
75639;SDS011;64233;51.486;6.332;2023-02-18T08:38:20;3.00;;;1.50;;
75639;SDS011;64233;51.486;6.332;2023-02-18T08:40:46;1.42;;;1.02;;
75639;SDS011;64233;51.486;6.332;2023-02-18T08:43:12;3.10;;;0.95;;
75639;SDS011;64233;51.486;6.332;2023-02-18T08:45:38;1.60;;;1.42;;
75639;SDS011;64233;51.486;6.332;2023-02-18T08:48:05;1.33;;;0.80;;
75639;SDS011;64233;51.486;6.332;2023-02-18T08:50:31;5.10;;;1.67;;
75639;SDS011;64233;51.486;6.332;2023-02-18T08:52:56;5.00;;;1.17;;
75639;SDS011;64233;51.486;6.332;2023-02-18T08:55:25;2.13;;;0.95;;
75639;SDS011;64233;51.486;6.332;2023-02-18T08:57:51;5.38;;;1.80;;
75639;SDS011;64233;51.486;6.332;2023-02-18T09:00:16;4.40;;;1.30;;
75639;SDS011;64233;51.486;6.332;2023-02-18T09:02:42;4.15;;;0.95;;
75639;SDS011;64233;51.486;6.332;2023-02-18T09:05:07;2.58;;;1.02;;
75639;SDS011;64233;51.486;6.332;2023-02-18T09:07:33;3.42;;;1.23;;
75639;SDS011;64233;51.486;6.332;2023-02-18T09:09:59;2.20;;;1.33;;
75639;SDS011;64233;51.486;6.332;2023-02-18T09:12:24;2.15;;;1.88;;
75639;SDS011;64233;51.486;6.332;2023-02-18T09:14:50;1.80;;;0.90;;
75639;SDS011;64233;51.486;6.332;2023-02-18T09:17:15;1.58;;;0.80;;
75639;SDS011;64233;51.486;6.332;2023-02-18T09:19:40;3.03;;;1.63;;
75639;SDS011;64233;51.486;6.332;2023-02-18T09:22:06;2.67;;;1.45;;
75639;SDS011;64233;51.486;6.332;2023-02-18T09:24:35;0.88;;;0.80;;
75639;SDS011;64233;51.486;6.332;2023-02-18T09:27:02;1.08;;;0.77;;
75639;SDS011;64233;51.486;6.332;2023-02-18T09:29:27;3.95;;;1.35;;
75639;SDS011;64233;51.486;6.332;2023-02-18T09:31:52;1.33;;;1.02;;
75639;SDS011;64233;51.486;6.332;2023-02-18T09:34:17;2.30;;;0.98;;
75639;SDS011;64233;51.486;6.332;2023-02-18T09:36:43;1.05;;;0.85;;
75639;SDS011;64233;51.486;6.332;2023-02-18T09:39:08;3.47;;;1.13;;
75639;SDS011;64233;51.486;6.332;2023-02-18T09:41:40;1.38;;;0.88;;
75639;SDS011;64233;51.486;6.332;2023-02-18T09:44:14;1.88;;;1.10;;
75639;SDS011;64233;51.486;6.332;2023-02-18T09:46:49;1.98;;;1.17;;
75639;SDS011;64233;51.486;6.332;2023-02-18T09:49:19;1.33;;;0.80;;
75639;SDS011;64233;51.486;6.332;2023-02-18T09:51:47;2.58;;;1.02;;
75639;SDS011;64233;51.486;6.332;2023-02-18T09:54:14;2.22;;;1.55;;
75639;SDS011;64233;51.486;6.332;2023-02-18T09:56:42;2.25;;;1.42;;
75639;SDS011;64233;51.486;6.332;2023-02-18T09:59:14;6.70;;;1.65;;
75639;SDS011;64233;51.486;6.332;2023-02-18T10:01:42;11.20;;;1.63;;
75639;SDS011;64233;51.486;6.332;2023-02-18T10:04:12;4.18;;;2.05;;
75639;SDS011;64233;51.486;6.332;2023-02-18T10:06:41;2.85;;;1.45;;
75639;SDS011;64233;51.486;6.332;2023-02-18T10:09:26;3.70;;;0.95;;
75639;SDS011;64233;51.486;6.332;2023-02-18T10:12:17;1.85;;;1.23;;
75639;SDS011;64233;51.486;6.332;2023-02-18T10:14:43;2.88;;;1.20;;
75639;SDS011;64233;51.486;6.332;2023-02-18T10:17:13;1.92;;;1.58;;
75639;SDS011;64233;51.486;6.332;2023-02-18T10:19:40;6.55;;;1.15;;
75639;SDS011;64233;51.486;6.332;2023-02-18T10:22:08;1.25;;;0.93;;
75639;SDS011;64233;51.486;6.332;2023-02-18T10:24:39;1.77;;;0.90;;
75639;SDS011;64233;51.486;6.332;2023-02-18T10:27:08;3.33;;;1.20;;
75639;SDS011;64233;51.486;6.332;2023-02-18T10:29:35;4.85;;;2.08;;
75639;SDS011;64233;51.486;6.332;2023-02-18T10:34:47;1.88;;;1.33;;
75639;SDS011;64233;51.486;6.332;2023-02-18T10:43:17;1.83;;;0.90;;
75639;SDS011;64233;51.486;6.332;2023-02-18T10:46:03;1.38;;;0.90;;
75639;SDS011;64233;51.486;6.332;2023-02-18T10:48:44;2.20;;;0.70;;
75639;SDS011;64233;51.486;6.332;2023-02-18T10:51:14;1.10;;;0.70;;
75639;SDS011;64233;51.486;6.332;2023-02-18T10:53:44;6.25;;;1.50;;
75639;SDS011;64233;51.486;6.332;2023-02-18T10:56:30;5.50;;;1.10;;
75639;SDS011;64233;51.486;6.332;2023-02-18T10:59:09;5.05;;;1.70;;
75639;SDS011;64233;51.486;6.332;2023-02-18T11:01:37;3.92;;;1.30;;
75639;SDS011;64233;51.486;6.332;2023-02-18T11:04:05;5.32;;;1.23;;
75639;SDS011;64233;51.486;6.332;2023-02-18T11:06:40;1.52;;;1.25;;
75639;SDS011;64233;51.486;6.332;2023-02-18T11:09:33;4.55;;;1.50;;
75639;SDS011;64233;51.486;6.332;2023-02-18T11:12:05;5.00;;;2.83;;
75639;SDS011;64233;51.486;6.332;2023-02-18T11:14:45;0.80;;;0.80;;
75639;SDS011;64233;51.486;6.332;2023-02-18T11:17:20;4.15;;;1.02;;
75639;SDS011;64233;51.486;6.332;2023-02-18T11:19:54;12.98;;;2.45;;
75639;SDS011;64233;51.486;6.332;2023-02-18T11:22:27;3.08;;;1.60;;
75639;SDS011;64233;51.486;6.332;2023-02-18T11:24:57;2.42;;;1.63;;
75639;SDS011;64233;51.486;6.332;2023-02-18T11:27:26;5.97;;;2.47;;
75639;SDS011;64233;51.486;6.332;2023-02-18T11:30:03;3.67;;;2.13;;
75639;SDS011;64233;51.486;6.332;2023-02-18T11:32:33;4.32;;;0.93;;
75639;SDS011;64233;51.486;6.332;2023-02-18T11:35:01;2.25;;;1.45;;
75639;SDS011;64233;51.486;6.332;2023-02-18T11:37:27;3.58;;;1.60;;
75639;SDS011;64233;51.486;6.332;2023-02-18T11:39:57;4.57;;;2.30;;
75639;SDS011;64233;51.486;6.332;2023-02-18T11:42:23;10.55;;;2.15;;
75639;SDS011;64233;51.486;6.332;2023-02-18T11:44:52;7.47;;;2.45;;
75639;SDS011;64233;51.486;6.332;2023-02-18T11:47:21;1.60;;;1.27;;
75639;SDS011;64233;51.486;6.332;2023-02-18T11:52:47;3.17;;;1.98;;
75639;SDS011;64233;51.486;6.332;2023-02-18T11:55:21;3.47;;;2.45;;
75639;SDS011;64233;51.486;6.332;2023-02-18T11:58:09;4.03;;;2.53;;
75639;SDS011;64233;51.486;6.332;2023-02-18T12:00:45;2.70;;;1.60;;
75639;SDS011;64233;51.486;6.332;2023-02-18T12:05:41;0.77;;;0.73;;
75639;SDS011;64233;51.486;6.332;2023-02-18T12:08:18;3.38;;;1.77;;
75639;SDS011;64233;51.486;6.332;2023-02-18T12:10:52;3.63;;;1.88;;
75639;SDS011;64233;51.486;6.332;2023-02-18T12:13:34;3.63;;;1.20;;
75639;SDS011;64233;51.486;6.332;2023-02-18T12:16:09;5.90;;;1.65;;
75639;SDS011;64233;51.486;6.332;2023-02-18T12:21:29;5.55;;;2.30;;
75639;SDS011;64233;51.486;6.332;2023-02-18T12:24:09;1.73;;;1.17;;
75639;SDS011;64233;51.486;6.332;2023-02-18T12:27:08;3.53;;;2.00;;
75639;SDS011;64233;51.486;6.332;2023-02-18T12:29:46;5.38;;;2.33;;
75639;SDS011;64233;51.486;6.332;2023-02-18T12:32:34;2.97;;;1.48;;
75639;SDS011;64233;51.486;6.332;2023-02-18T12:35:18;5.97;;;2.85;;
75639;SDS011;64233;51.486;6.332;2023-02-18T12:38:13;2.85;;;1.27;;
75639;SDS011;64233;51.486;6.332;2023-02-18T12:46:36;4.10;;;2.40;;
75639;SDS011;64233;51.486;6.332;2023-02-18T12:52:28;5.38;;;2.78;;
75639;SDS011;64233;51.486;6.332;2023-02-18T12:58:13;4.70;;;1.58;;
75639;SDS011;64233;51.486;6.332;2023-02-18T13:15:02;13.27;;;4.53;;
75639;SDS011;64233;51.486;6.332;2023-02-18T13:17:37;9.05;;;4.68;;
75639;SDS011;64233;51.486;6.332;2023-02-18T13:20:11;7.18;;;3.70;;
75639;SDS011;64233;51.486;6.332;2023-02-18T13:22:44;8.57;;;3.92;;
75639;SDS011;64233;51.486;6.332;2023-02-18T13:25:13;6.65;;;4.15;;
75639;SDS011;64233;51.486;6.332;2023-02-18T13:27:42;7.60;;;2.70;;
75639;SDS011;64233;51.486;6.332;2023-02-18T13:30:15;6.22;;;3.20;;
75639;SDS011;64233;51.486;6.332;2023-02-18T13:35:35;12.70;;;4.35;;
75639;SDS011;64233;51.486;6.332;2023-02-18T13:40:50;11.43;;;4.25;;
75639;SDS011;64233;51.486;6.332;2023-02-18T13:43:17;11.63;;;5.22;;
75639;SDS011;64233;51.486;6.332;2023-02-18T13:46:01;11.73;;;4.85;;
75639;SDS011;64233;51.486;6.332;2023-02-18T13:48:44;15.98;;;5.88;;
75639;SDS011;64233;51.486;6.332;2023-02-18T13:51:38;5.00;;;2.95;;
75639;SDS011;64233;51.486;6.332;2023-02-18T13:54:16;8.07;;;5.60;;
75639;SDS011;64233;51.486;6.332;2023-02-18T13:56:48;12.40;;;5.60;;
75639;SDS011;64233;51.486;6.332;2023-02-18T13:59:23;11.20;;;6.45;;
75639;SDS011;64233;51.486;6.332;2023-02-18T14:01:56;6.50;;;4.35;;
75639;SDS011;64233;51.486;6.332;2023-02-18T14:05:11;13.73;;;6.63;;
75639;SDS011;64233;51.486;6.332;2023-02-18T14:07:45;11.45;;;6.85;;
75639;SDS011;64233;51.486;6.332;2023-02-18T14:12:59;4.60;;;2.90;;
75639;SDS011;64233;51.486;6.332;2023-02-18T14:20:31;17.52;;;6.88;;
75639;SDS011;64233;51.486;6.332;2023-02-18T14:25:48;5.15;;;3.38;;
75639;SDS011;64233;51.486;6.332;2023-02-18T14:28:34;10.40;;;5.30;;
75639;SDS011;64233;51.486;6.332;2023-02-18T14:33:41;11.43;;;6.80;;
75639;SDS011;64233;51.486;6.332;2023-02-18T14:36:18;8.82;;;4.97;;
75639;SDS011;64233;51.486;6.332;2023-02-18T14:41:50;10.07;;;6.13;;
75639;SDS011;64233;51.486;6.332;2023-02-18T14:44:33;8.38;;;5.03;;
75639;SDS011;64233;51.486;6.332;2023-02-18T14:47:24;8.73;;;4.40;;
75639;SDS011;64233;51.486;6.332;2023-02-18T14:50:09;16.85;;;7.53;;
75639;SDS011;64233;51.486;6.332;2023-02-18T14:52:37;13.55;;;7.03;;
75639;SDS011;64233;51.486;6.332;2023-02-18T14:55:22;23.63;;;8.68;;
75639;SDS011;64233;51.486;6.332;2023-02-18T14:58:01;23.20;;;8.80;;
75639;SDS011;64233;51.486;6.332;2023-02-18T15:00:33;9.43;;;5.90;;
75639;SDS011;64233;51.486;6.332;2023-02-18T15:03:03;13.93;;;7.95;;
75639;SDS011;64233;51.486;6.332;2023-02-18T15:05:36;4.72;;;3.08;;
75639;SDS011;64233;51.486;6.332;2023-02-18T15:08:06;12.98;;;7.65;;
75639;SDS011;64233;51.486;6.332;2023-02-18T15:10:51;16.83;;;8.10;;
75639;SDS011;64233;51.486;6.332;2023-02-18T15:13:21;12.40;;;7.40;;
75639;SDS011;64233;51.486;6.332;2023-02-18T15:15:54;11.73;;;5.00;;
75639;SDS011;64233;51.486;6.332;2023-02-18T15:18:30;14.05;;;6.55;;
75639;SDS011;64233;51.486;6.332;2023-02-18T15:21:05;15.30;;;5.38;;
75639;SDS011;64233;51.486;6.332;2023-02-18T15:23:36;14.70;;;7.05;;
75639;SDS011;64233;51.486;6.332;2023-02-18T15:26:04;14.20;;;6.80;;
75639;SDS011;64233;51.486;6.332;2023-02-18T15:28:38;15.63;;;7.88;;
75639;SDS011;64233;51.486;6.332;2023-02-18T15:31:12;13.88;;;8.13;;
75639;SDS011;64233;51.486;6.332;2023-02-18T15:33:41;16.27;;;8.68;;
75639;SDS011;64233;51.486;6.332;2023-02-18T15:36:10;16.35;;;8.25;;
75639;SDS011;64233;51.486;6.332;2023-02-18T15:38:38;25.85;;;9.65;;
75639;SDS011;64233;51.486;6.332;2023-02-18T15:41:09;13.65;;;8.05;;
75639;SDS011;64233;51.486;6.332;2023-02-18T15:43:37;15.57;;;8.30;;
75639;SDS011;64233;51.486;6.332;2023-02-18T15:46:04;14.13;;;7.30;;
75639;SDS011;64233;51.486;6.332;2023-02-18T15:48:38;22.50;;;7.18;;
75639;SDS011;64233;51.486;6.332;2023-02-18T15:51:10;16.38;;;7.18;;
75639;SDS011;64233;51.486;6.332;2023-02-18T15:53:37;11.23;;;6.63;;
75639;SDS011;64233;51.486;6.332;2023-02-18T15:56:06;11.18;;;5.93;;
75639;SDS011;64233;51.486;6.332;2023-02-18T15:58:34;12.77;;;6.07;;
75639;SDS011;64233;51.486;6.332;2023-02-18T16:01:01;14.82;;;7.20;;
75639;SDS011;64233;51.486;6.332;2023-02-18T16:06:08;13.27;;;6.47;;
75639;SDS011;64233;51.486;6.332;2023-02-18T16:08:59;10.77;;;6.18;;
75639;SDS011;64233;51.486;6.332;2023-02-18T16:11:31;13.93;;;5.78;;
75639;SDS011;64233;51.486;6.332;2023-02-18T16:13:59;9.70;;;5.70;;
75639;SDS011;64233;51.486;6.332;2023-02-18T16:16:32;11.82;;;4.85;;
75639;SDS011;64233;51.486;6.332;2023-02-18T16:19:00;8.40;;;4.72;;
75639;SDS011;64233;51.486;6.332;2023-02-18T16:21:39;15.02;;;5.45;;
75639;SDS011;64233;51.486;6.332;2023-02-18T16:24:21;8.10;;;5.13;;
75639;SDS011;64233;51.486;6.332;2023-02-18T16:26:53;10.52;;;5.75;;
75639;SDS011;64233;51.486;6.332;2023-02-18T16:29:25;9.63;;;5.45;;
75639;SDS011;64233;51.486;6.332;2023-02-18T16:31:57;11.35;;;5.47;;
75639;SDS011;64233;51.486;6.332;2023-02-18T16:34:23;9.02;;;5.18;;
75639;SDS011;64233;51.486;6.332;2023-02-18T16:36:48;8.13;;;5.10;;
75639;SDS011;64233;51.486;6.332;2023-02-18T16:39:33;10.52;;;4.88;;
75639;SDS011;64233;51.486;6.332;2023-02-18T16:41:59;10.38;;;5.32;;
75639;SDS011;64233;51.486;6.332;2023-02-18T16:44:24;8.50;;;3.92;;